createdAt,value
2019-05-15T00:00:02.037Z,1012.33
2019-05-15T00:01:02.023Z,1012.31
2019-05-15T00:02:02.044Z,1012.36
2019-05-15T00:03:01.997Z,1012.33
2019-05-15T00:04:01.996Z,1012.32
2019-05-15T00:05:01.980Z,1012.24
2019-05-15T00:06:01.976Z,1012.34
2019-05-15T00:07:01.988Z,1012.24
2019-05-15T00:08:01.956Z,1012.27
2019-05-15T00:09:01.947Z,1012.31
2019-05-15T00:10:01.931Z,1012.32
2019-05-15T00:11:01.915Z,1012.29
2019-05-15T00:12:01.934Z,1012.37
2019-05-15T00:13:01.900Z,1012.35
2019-05-15T00:14:01.887Z,1012.34
2019-05-15T00:15:01.876Z,1012.28
2019-05-15T00:16:01.862Z,1012.31
2019-05-15T00:17:01.888Z,1012.32
2019-05-15T00:18:01.840Z,1012.33
2019-05-15T00:19:01.827Z,1012.25
2019-05-15T00:20:01.820Z,1012.31
2019-05-15T00:21:01.809Z,1012.31
2019-05-15T00:22:01.829Z,1012.31
2019-05-15T00:23:01.784Z,1012.32
2019-05-15T00:24:01.799Z,1012.25
2019-05-15T00:25:01.762Z,1012.29
2019-05-15T00:26:01.751Z,1012.26
2019-05-15T00:27:01.766Z,1012.30
2019-05-15T00:28:01.730Z,1012.32
2019-05-15T00:29:11.568Z,1012.33
2019-05-15T00:30:02.710Z,1012.30
2019-05-15T00:31:01.699Z,1012.31
2019-05-15T00:32:01.711Z,1012.26
2019-05-15T00:33:01.685Z,1012.28
2019-05-15T00:34:01.672Z,1012.24
2019-05-15T00:35:01.658Z,1012.31
2019-05-15T00:36:01.648Z,1012.29
2019-05-15T00:37:01.665Z,1012.30
2019-05-15T00:38:01.628Z,1012.29
2019-05-15T00:39:01.617Z,1012.31
2019-05-15T00:40:01.604Z,1012.36
2019-05-15T00:41:01.598Z,1012.28
2019-05-15T00:42:01.609Z,1012.29
2019-05-15T00:43:01.580Z,1012.28
2019-05-15T00:44:01.562Z,1012.31
2019-05-15T00:45:01.555Z,1012.24
2019-05-15T00:46:01.553Z,1012.29
2019-05-15T00:47:01.526Z,1012.28
2019-05-15T00:48:01.546Z,1012.28
2019-05-15T00:49:01.509Z,1012.29
2019-05-15T00:50:01.495Z,1012.28
2019-05-15T00:51:01.495Z,1012.30
2019-05-15T00:52:01.483Z,1012.33
2019-05-15T00:53:01.490Z,1012.31
2019-05-15T00:54:01.455Z,1012.27
2019-05-15T00:55:01.450Z,1012.29
2019-05-15T00:56:01.433Z,1012.29
2019-05-15T00:57:01.448Z,1012.24
2019-05-15T00:58:01.436Z,1012.24
2019-05-15T00:59:01.398Z,1012.25
2019-05-15T01:00:01.397Z,1012.26
2019-05-15T01:01:01.376Z,1012.21
2019-05-15T01:02:01.377Z,1012.26
2019-05-15T01:03:01.382Z,1012.14
2019-05-15T01:04:01.345Z,1012.17
2019-05-15T01:05:01.337Z,1012.14
2019-05-15T01:06:01.326Z,1012.17
2019-05-15T01:07:01.319Z,1012.19
2019-05-15T01:08:01.331Z,1012.15
2019-05-15T01:09:01.292Z,1012.10
2019-05-15T01:10:01.278Z,1012.18
2019-05-15T01:11:01.270Z,1012.10
2019-05-15T01:12:01.259Z,1012.08
2019-05-15T01:13:01.279Z,1012.10
2019-05-15T01:14:01.245Z,1012.16
2019-05-15T01:15:01.244Z,1012.16
2019-05-15T01:16:01.222Z,1012.10
2019-05-15T01:17:01.207Z,1012.07
2019-05-15T01:18:01.220Z,1012.12
2019-05-15T01:19:01.184Z,1012.04
2019-05-15T01:20:01.170Z,1012.13
2019-05-15T01:21:01.171Z,1012.09
2019-05-15T01:22:01.150Z,1012.09
2019-05-15T01:23:01.169Z,1012.19
2019-05-15T01:24:01.134Z,1012.13
2019-05-15T01:25:01.125Z,1012.15
2019-05-15T01:26:01.110Z,1012.14
2019-05-15T01:27:01.101Z,1012.10
2019-05-15T01:28:01.112Z,1012.13
2019-05-15T01:29:01.076Z,1012.14
2019-05-15T01:30:01.068Z,1012.15
2019-05-15T01:31:01.063Z,1012.12
2019-05-15T01:32:01.047Z,1012.14
2019-05-15T01:33:01.070Z,1012.09
2019-05-15T01:34:01.027Z,1012.09
2019-05-15T01:35:01.020Z,1012.12
2019-05-15T01:36:01.006Z,1012.11
2019-05-15T01:37:00.999Z,1012.03
2019-05-15T01:38:01.022Z,1012.04
2019-05-15T01:39:00.971Z,1012.03
2019-05-15T01:40:00.966Z,1012.13
2019-05-15T01:41:00.956Z,1012.02
2019-05-15T01:42:00.943Z,1012.02
2019-05-15T01:43:00.955Z,1012.01
2019-05-15T01:44:00.917Z,1012.07
2019-05-15T01:45:00.913Z,1012.08
2019-05-15T01:46:00.901Z,1012.07
2019-05-15T01:47:00.888Z,1012.03
2019-05-15T01:48:00.905Z,1012.01
2019-05-15T01:49:00.867Z,1012.08
2019-05-15T01:50:00.854Z,1012.02
2019-05-15T01:51:00.837Z,1012.01
2019-05-15T01:52:00.833Z,1011.98
2019-05-15T01:53:00.850Z,1011.99
2019-05-15T01:54:00.824Z,1012.01
2019-05-15T01:55:00.809Z,1011.94
2019-05-15T01:56:00.792Z,1012.00
2019-05-15T01:57:00.791Z,1011.97
2019-05-15T01:58:00.800Z,1011.99
2019-05-15T01:59:00.766Z,1011.91
2019-05-15T02:00:01.039Z,1011.85
2019-05-15T02:01:00.739Z,1011.96
2019-05-15T02:02:00.728Z,1011.87
2019-05-15T02:03:00.743Z,1011.86
2019-05-15T02:04:00.709Z,1011.87
2019-05-15T02:05:00.705Z,1011.82
2019-05-15T02:06:00.692Z,1011.86
2019-05-15T02:07:00.678Z,1011.85
2019-05-15T02:08:00.701Z,1011.80
2019-05-15T02:09:00.660Z,1011.86
2019-05-15T02:10:00.647Z,1011.79
2019-05-15T02:11:00.638Z,1011.79
2019-05-15T02:12:00.627Z,1011.93
2019-05-15T02:13:00.648Z,1011.91
2019-05-15T02:14:00.602Z,1011.84
2019-05-15T02:15:00.594Z,1011.86
2019-05-15T02:16:00.583Z,1011.88
2019-05-15T02:17:00.570Z,1011.85
2019-05-15T02:18:00.584Z,1011.89
2019-05-15T02:19:00.551Z,1011.84
2019-05-15T02:20:00.544Z,1011.80
2019-05-15T02:21:00.536Z,1011.84
2019-05-15T02:22:00.518Z,1011.90
2019-05-15T02:23:00.543Z,1011.84
2019-05-15T02:24:00.501Z,1011.90
2019-05-15T02:25:00.508Z,1011.84
2019-05-15T02:26:00.482Z,1011.89
2019-05-15T02:27:00.468Z,1011.91
2019-05-15T02:28:00.491Z,1011.85
2019-05-15T02:29:00.445Z,1011.89
2019-05-15T02:30:16.303Z,1011.88
2019-05-15T02:31:01.424Z,1011.87
2019-05-15T02:32:00.415Z,1011.84
2019-05-15T02:33:00.431Z,1011.82
2019-05-15T02:34:00.402Z,1011.79
2019-05-15T02:35:00.389Z,1011.90
2019-05-15T02:36:00.408Z,1011.88
2019-05-15T02:37:00.584Z,1011.98
2019-05-15T02:38:00.377Z,1011.85
2019-05-15T02:39:00.343Z,1011.86
2019-05-15T02:40:00.338Z,1011.82
2019-05-15T02:41:00.320Z,1011.81
2019-05-15T02:42:00.315Z,1011.81
2019-05-15T02:43:00.325Z,1011.80
2019-05-15T02:44:00.301Z,1011.79
2019-05-15T02:45:00.276Z,1011.80
2019-05-15T02:46:00.696Z,1011.75
2019-05-15T02:47:00.257Z,1011.80
2019-05-15T02:48:00.273Z,1011.85
2019-05-15T02:49:00.245Z,1011.82
2019-05-15T02:50:00.243Z,1011.93
2019-05-15T02:51:00.218Z,1011.83
2019-05-15T02:52:00.518Z,1011.94
2019-05-15T02:53:00.730Z,1011.88
2019-05-15T02:54:00.181Z,1011.88
2019-05-15T02:55:00.179Z,1011.90
2019-05-15T02:56:00.399Z,1011.91
2019-05-15T02:57:00.155Z,1011.94
2019-05-15T02:58:00.164Z,1011.93
2019-05-15T02:59:00.286Z,1011.90
2019-05-15T03:00:00.117Z,1011.96
2019-05-15T03:01:00.110Z,1011.94
2019-05-15T03:02:00.105Z,1011.99
2019-05-15T03:03:00.456Z,1011.94
2019-05-15T03:04:00.078Z,1011.89
2019-05-15T03:05:00.069Z,1011.86
2019-05-15T03:06:00.506Z,1011.84
2019-05-15T03:07:00.513Z,1011.89
2019-05-15T03:08:00.037Z,1011.91
2019-05-15T03:09:00.047Z,1011.93
2019-05-15T03:10:00.323Z,1011.80
2019-05-15T03:11:00.005Z,1011.83
2019-05-15T03:11:59.999Z,1011.79
2019-05-15T03:13:00.263Z,1011.87
2019-05-15T03:14:00.009Z,1011.82
2019-05-15T03:15:00.153Z,1011.83
2019-05-15T03:16:00.163Z,1011.86
2019-05-15T03:16:59.988Z,1011.87
2019-05-15T03:18:00.541Z,1011.89
2019-05-15T03:19:00.064Z,1011.89
2019-05-15T03:19:59.908Z,1011.91
2019-05-15T03:21:00.493Z,1011.84
2019-05-15T03:22:00.092Z,1011.85
2019-05-15T03:22:59.928Z,1011.89
2019-05-15T03:23:59.892Z,1011.91
2019-05-15T03:24:59.861Z,1011.93
2019-05-15T03:26:04.006Z,1011.91
2019-05-15T03:26:59.838Z,1011.85
2019-05-15T03:27:59.824Z,1011.86
2019-05-15T03:28:59.846Z,1011.93
2019-05-15T03:29:59.800Z,1011.90
2019-05-15T03:31:18.199Z,1011.91
2019-05-15T03:32:22.174Z,1011.91
2019-05-15T03:33:08.780Z,1011.88
2019-05-15T03:34:02.888Z,1011.88
2019-05-15T03:35:04.826Z,1011.88
2019-05-15T03:36:02.470Z,1011.87
2019-05-15T03:37:03.617Z,1011.91
2019-05-15T03:38:00.033Z,1011.80
2019-05-15T03:38:59.742Z,1011.84
2019-05-15T03:39:59.806Z,1011.80
2019-05-15T03:40:59.861Z,1011.83
2019-05-15T03:41:59.674Z,1011.78
2019-05-15T03:42:59.682Z,1011.81
2019-05-15T03:43:59.839Z,1011.85
2019-05-15T03:44:59.853Z,1011.88
2019-05-15T03:46:01.626Z,1011.81
2019-05-15T03:46:59.866Z,1011.80
2019-05-15T03:47:59.746Z,1011.78
2019-05-15T03:49:00.530Z,1011.76
2019-05-15T03:50:00.087Z,1011.74
2019-05-15T03:50:59.901Z,1011.72
2019-05-15T03:51:59.575Z,1011.76
2019-05-15T03:52:59.565Z,1011.73
2019-05-15T03:54:00.337Z,1011.68
2019-05-15T03:54:59.548Z,1011.70
2019-05-15T03:55:59.535Z,1011.76
2019-05-15T03:56:59.523Z,1011.76
2019-05-15T03:57:59.513Z,1011.77
2019-05-15T03:58:59.875Z,1011.77
2019-05-15T03:59:59.808Z,1011.74
2019-05-15T04:01:00.157Z,1011.74
2019-05-15T04:02:00.053Z,1011.69
2019-05-15T04:02:59.466Z,1011.69
2019-05-15T04:03:59.980Z,1011.80
2019-05-15T04:05:01.630Z,1011.71
2019-05-15T04:06:00.534Z,1011.84
2019-05-15T04:06:59.902Z,1011.78
2019-05-15T04:07:59.989Z,1011.71
2019-05-15T04:08:59.421Z,1011.70
2019-05-15T04:09:59.384Z,1011.79
2019-05-15T04:10:59.812Z,1011.71
2019-05-15T04:12:00.104Z,1011.83
2019-05-15T04:13:00.160Z,1011.74
2019-05-15T04:13:59.638Z,1011.79
2019-05-15T04:14:59.772Z,1011.77
2019-05-15T04:15:59.613Z,1011.75
2019-05-15T04:16:59.740Z,1011.77
2019-05-15T04:18:00.333Z,1011.78
2019-05-15T04:18:59.558Z,1011.84
2019-05-15T04:19:59.285Z,1011.84
2019-05-15T04:21:00.128Z,1011.78
2019-05-15T04:22:00.014Z,1011.79
2019-05-15T04:23:00.395Z,1011.82
2019-05-15T04:23:59.259Z,1011.82
2019-05-15T04:24:59.489Z,1011.84
2019-05-15T04:25:59.234Z,1011.86
2019-05-15T04:26:59.856Z,1011.80
2019-05-15T04:27:59.192Z,1011.82
2019-05-15T04:29:00.179Z,1011.83
2019-05-15T04:29:59.343Z,1011.82
2019-05-15T04:30:59.786Z,1011.79
2019-05-15T04:32:05.385Z,1011.85
2019-05-15T04:33:00.150Z,1011.80
2019-05-15T04:33:59.367Z,1011.85
2019-05-15T04:34:59.484Z,1011.80
2019-05-15T04:35:59.182Z,1011.85
2019-05-15T04:36:59.104Z,1011.88
2019-05-15T04:37:59.872Z,1011.85
2019-05-15T04:38:59.104Z,1011.92
2019-05-15T04:39:59.867Z,1011.84
2019-05-15T04:40:59.323Z,1011.94
2019-05-15T04:41:59.168Z,1011.75
2019-05-15T04:42:59.438Z,1011.83
2019-05-15T04:43:59.739Z,1011.83
2019-05-15T04:44:59.662Z,1011.80
2019-05-15T04:46:02.859Z,1011.83
2019-05-15T04:46:59.625Z,1011.83
2019-05-15T04:47:58.981Z,1011.84
2019-05-15T04:48:59.693Z,1011.82
2019-05-15T04:49:59.141Z,1011.89
2019-05-15T04:50:59.036Z,1011.88
2019-05-15T04:52:03.340Z,1011.91
2019-05-15T04:52:59.412Z,1011.88
2019-05-15T04:53:58.918Z,1011.86
2019-05-15T04:54:59.759Z,1011.98
2019-05-15T04:55:59.837Z,1011.96
2019-05-15T04:56:59.550Z,1011.92
2019-05-15T04:57:59.323Z,1011.99
2019-05-15T04:59:00.108Z,1011.97
2019-05-15T04:59:58.881Z,1011.92
2019-05-15T05:00:59.885Z,1011.93
2019-05-15T05:02:16.332Z,1011.96
2019-05-15T05:02:59.825Z,1012.01
2019-05-15T05:03:59.022Z,1011.95
2019-05-15T05:04:58.963Z,1011.93
2019-05-15T05:05:59.328Z,1012.01
2019-05-15T05:06:58.815Z,1011.98
2019-05-15T05:07:59.688Z,1011.95
2019-05-15T05:08:59.684Z,1012.02
2019-05-15T05:09:59.511Z,1012.01
2019-05-15T05:10:59.298Z,1012.06
2019-05-15T05:11:58.733Z,1011.96
2019-05-15T05:12:59.179Z,1011.99
2019-05-15T05:13:59.219Z,1012.03
2019-05-15T05:14:58.857Z,1011.94
2019-05-15T05:15:58.924Z,1011.91
2019-05-15T05:16:59.297Z,1011.97
2019-05-15T05:17:58.730Z,1012.01
2019-05-15T05:18:59.406Z,1011.99
2019-05-15T05:19:58.672Z,1011.98
2019-05-15T05:20:58.630Z,1012.03
2019-05-15T05:21:58.667Z,1012.05
2019-05-15T05:22:58.609Z,1012.05
2019-05-15T05:23:58.690Z,1012.01
2019-05-15T05:24:58.634Z,1012.05
2019-05-15T05:25:58.573Z,1012.06
2019-05-15T05:26:58.566Z,1012.04
2019-05-15T05:27:58.555Z,1012.16
2019-05-15T05:29:01.384Z,1012.04
2019-05-15T05:29:58.715Z,1012.12
2019-05-15T05:30:58.943Z,1012.12
2019-05-15T05:31:58.667Z,1012.09
2019-05-15T05:32:58.506Z,1012.06
2019-05-15T05:33:58.491Z,1012.20
2019-05-15T05:34:58.941Z,1012.17
2019-05-15T05:35:58.604Z,1012.18
2019-05-15T05:36:58.921Z,1012.19
2019-05-15T05:37:58.453Z,1012.22
2019-05-15T05:38:58.503Z,1012.21
2019-05-15T05:39:58.430Z,1012.18
2019-05-15T05:40:58.774Z,1012.20
2019-05-15T05:41:58.823Z,1012.28
2019-05-15T05:42:59.621Z,1012.06
2019-05-15T05:43:58.783Z,1012.22
2019-05-15T05:44:58.377Z,1012.21
2019-05-15T05:45:58.398Z,1012.13
2019-05-15T05:46:58.356Z,1012.15
2019-05-15T05:47:58.346Z,1012.09
2019-05-15T05:48:58.422Z,1012.12
2019-05-15T05:49:58.325Z,1012.20
2019-05-15T05:50:58.504Z,1012.15
2019-05-15T05:51:58.776Z,1012.24
2019-05-15T05:52:58.290Z,1012.19
2019-05-15T05:53:58.980Z,1012.18
2019-05-15T05:54:58.267Z,1012.11
2019-05-15T05:55:58.581Z,1012.16
2019-05-15T05:56:58.681Z,1012.20
2019-05-15T05:57:58.458Z,1012.15
2019-05-15T05:58:58.652Z,1012.11
2019-05-15T05:59:58.372Z,1012.12
2019-05-15T06:00:58.694Z,1012.20
2019-05-15T06:01:58.995Z,1012.16
2019-05-15T06:02:59.137Z,1012.17
2019-05-15T06:03:58.376Z,1012.08
2019-05-15T06:04:58.335Z,1012.11
2019-05-15T06:05:59.038Z,1012.11
2019-05-15T06:07:07.234Z,1012.15
2019-05-15T06:07:59.127Z,1012.10
2019-05-15T06:08:58.465Z,1012.07
2019-05-15T06:09:58.223Z,1012.07
2019-05-15T06:10:58.603Z,1012.03
2019-05-15T06:11:58.992Z,1012.09
2019-05-15T06:12:58.775Z,1012.04
2019-05-15T06:13:58.526Z,1012.00
2019-05-15T06:14:58.152Z,1012.09
2019-05-15T06:15:59.109Z,1012.12
2019-05-15T06:16:58.901Z,1012.06
2019-05-15T06:17:58.538Z,1012.09
2019-05-15T06:18:58.658Z,1012.09
2019-05-15T06:19:58.634Z,1012.09
2019-05-15T06:20:58.746Z,1012.16
2019-05-15T06:22:00.916Z,1012.07
2019-05-15T06:22:58.084Z,1012.18
2019-05-15T06:24:04.100Z,1012.15
2019-05-15T06:24:58.947Z,1012.09
2019-05-15T06:25:59.245Z,1012.17
2019-05-15T06:26:58.697Z,1012.17
2019-05-15T06:27:58.373Z,1012.15
2019-05-15T06:28:58.584Z,1012.20
2019-05-15T06:29:58.100Z,1012.16
2019-05-15T06:31:00.736Z,1012.16
2019-05-15T06:31:58.760Z,1012.17
2019-05-15T06:33:08.323Z,1012.08
2019-05-15T06:33:58.856Z,1012.14
2019-05-15T06:34:57.900Z,1012.20
2019-05-15T06:35:59.274Z,1012.11
2019-05-15T06:36:58.894Z,1012.17
2019-05-15T06:37:59.077Z,1012.17
2019-05-15T06:38:59.015Z,1012.20
2019-05-15T06:39:58.830Z,1012.17
2019-05-15T06:40:58.364Z,1012.10
2019-05-15T06:41:58.846Z,1012.16
2019-05-15T06:42:59.317Z,1012.15
2019-05-15T06:43:58.900Z,1012.23
2019-05-15T06:44:58.905Z,1012.20
2019-05-15T06:45:58.467Z,1012.14
2019-05-15T06:46:58.784Z,1012.17
2019-05-15T06:47:58.328Z,1012.08
2019-05-15T06:48:58.095Z,1012.08
2019-05-15T06:49:58.019Z,1012.13
2019-05-15T06:50:58.040Z,1012.16
2019-05-15T06:51:58.159Z,1012.17
2019-05-15T06:52:58.748Z,1012.04
2019-05-15T06:53:58.355Z,1012.06
2019-05-15T06:54:59.222Z,1012.17
2019-05-15T06:55:58.487Z,1012.11
2019-05-15T06:56:58.338Z,1012.13
2019-05-15T06:57:58.405Z,1012.17
2019-05-15T06:58:58.183Z,1012.18
2019-05-15T06:59:58.011Z,1012.19
2019-05-15T07:00:59.267Z,1012.27
2019-05-15T07:01:59.362Z,1012.23
2019-05-15T07:02:58.292Z,1012.22
2019-05-15T07:03:59.020Z,1012.30
2019-05-15T07:04:58.357Z,1012.23
2019-05-15T07:05:59.703Z,1012.24
2019-05-15T07:06:58.325Z,1012.24
2019-05-15T07:07:58.475Z,1012.30
2019-05-15T07:08:58.591Z,1012.22
2019-05-15T07:09:58.188Z,1012.35
2019-05-15T07:10:57.952Z,1012.33
2019-05-15T07:11:59.081Z,1012.37
2019-05-15T07:12:58.477Z,1012.33
2019-05-15T07:13:58.045Z,1012.34
2019-05-15T07:14:58.229Z,1012.32
2019-05-15T07:15:58.540Z,1012.39
2019-05-15T07:16:59.177Z,1012.31
2019-05-15T07:17:58.021Z,1012.39
2019-05-15T07:18:58.880Z,1012.40
2019-05-15T07:19:59.225Z,1012.40
2019-05-15T07:20:58.093Z,1012.28
2019-05-15T07:21:58.128Z,1012.35
2019-05-15T07:22:58.596Z,1012.33
2019-05-15T07:23:58.405Z,1012.31
2019-05-15T07:24:58.248Z,1012.27
2019-05-15T07:25:58.767Z,1012.26
2019-05-15T07:26:59.130Z,1012.30
2019-05-15T07:27:58.072Z,1012.26
2019-05-15T07:28:59.351Z,1012.28
2019-05-15T07:29:58.359Z,1012.31
2019-05-15T07:30:58.332Z,1012.23
2019-05-15T07:31:58.565Z,1012.25
2019-05-15T07:32:58.575Z,1012.24
2019-05-15T07:33:59.676Z,1012.23
2019-05-15T07:34:57.904Z,1012.24
2019-05-15T07:35:59.079Z,1012.25
2019-05-15T07:36:59.191Z,1012.22
2019-05-15T07:37:58.668Z,1012.27
2019-05-15T07:38:57.990Z,1012.29
2019-05-15T07:39:59.125Z,1012.15
2019-05-15T07:41:01.136Z,1012.23
2019-05-15T07:41:58.157Z,1012.23
2019-05-15T07:42:58.530Z,1012.19
2019-05-15T07:43:58.574Z,1012.18
2019-05-15T07:44:58.879Z,1012.28
2019-05-15T07:45:59.071Z,1012.19
2019-05-15T07:46:58.358Z,1012.17
2019-05-15T07:47:58.518Z,1012.22
2019-05-15T07:48:58.324Z,1012.19
2019-05-15T07:49:59.082Z,1012.17
2019-05-15T07:50:58.996Z,1012.22
2019-05-15T07:51:59.224Z,1012.15
2019-05-15T07:52:59.022Z,1012.16
2019-05-15T07:53:58.317Z,1012.20
2019-05-15T07:54:58.273Z,1012.16
2019-05-15T07:56:01.047Z,1012.16
2019-05-15T07:56:58.201Z,1012.17
2019-05-15T07:57:59.136Z,1012.16
2019-05-15T07:58:58.592Z,1012.07
2019-05-15T07:59:58.820Z,1012.18
2019-05-15T08:00:59.016Z,1012.15
2019-05-15T08:01:58.126Z,1012.21
2019-05-15T08:02:58.632Z,1012.16
2019-05-15T08:04:09.425Z,1012.14
2019-05-15T08:04:57.889Z,1012.18
2019-05-15T08:06:02.625Z,1012.24
2019-05-15T08:06:59.107Z,1012.18
2019-05-15T08:07:58.108Z,1012.16
2019-05-15T08:08:59.040Z,1012.24
2019-05-15T08:09:59.214Z,1012.17
2019-05-15T08:10:57.944Z,1012.21
2019-05-15T08:11:59.265Z,1012.32
2019-05-15T08:12:58.135Z,1012.18
2019-05-15T08:13:58.226Z,1012.12
2019-05-15T08:14:58.238Z,1012.19
2019-05-15T08:15:57.976Z,1012.17
2019-05-15T08:16:59.026Z,1012.17
2019-05-15T08:18:05.549Z,1012.26
2019-05-15T08:18:57.933Z,1012.24
2019-05-15T08:19:58.228Z,1012.12
2019-05-15T08:20:58.604Z,1012.14
2019-05-15T08:21:58.193Z,1012.12
2019-05-15T08:22:58.259Z,1012.06
2019-05-15T08:23:58.890Z,1012.15
2019-05-15T08:24:58.965Z,1012.04
2019-05-15T08:25:57.863Z,1012.10
2019-05-15T08:26:58.129Z,1012.02
2019-05-15T08:27:58.637Z,1012.01
2019-05-15T08:28:57.921Z,1012.07
2019-05-15T08:29:58.131Z,1012.07
2019-05-15T08:30:58.370Z,1012.09
2019-05-15T08:31:58.749Z,1012.18
2019-05-15T08:32:58.754Z,1012.08
2019-05-15T08:34:12.030Z,1012.10
2019-05-15T08:34:58.667Z,1012.00
2019-05-15T08:35:58.726Z,1012.09
2019-05-15T08:36:58.751Z,1012.14
2019-05-15T08:37:58.105Z,1012.11
2019-05-15T08:38:59.065Z,1012.09
2019-05-15T08:39:59.415Z,1012.06
2019-05-15T08:40:57.006Z,1012.01
2019-05-15T08:41:58.418Z,1012.03
2019-05-15T08:43:01.904Z,1012.03
2019-05-15T08:43:57.948Z,1011.98
2019-05-15T08:44:58.346Z,1012.08
2019-05-15T08:45:58.670Z,1012.04
2019-05-15T08:46:58.759Z,1012.02
2019-05-15T08:47:58.614Z,1012.06
2019-05-15T08:48:58.334Z,1011.95
2019-05-15T08:49:57.963Z,1011.93
2019-05-15T08:50:57.941Z,1011.90
2019-05-15T08:51:58.388Z,1012.01
2019-05-15T08:52:57.941Z,1011.88
2019-05-15T08:53:57.954Z,1011.96
2019-05-15T08:54:58.853Z,1011.85
2019-05-15T08:55:58.616Z,1011.96
2019-05-15T08:56:58.987Z,1011.96
2019-05-15T08:58:05.727Z,1011.88
2019-05-15T08:58:58.019Z,1011.84
2019-05-15T08:59:58.321Z,1011.77
2019-05-15T09:00:58.569Z,1011.79
2019-05-15T09:01:58.198Z,1011.81
2019-05-15T09:02:58.173Z,1011.82
2019-05-15T09:03:58.176Z,1011.90
2019-05-15T09:04:58.059Z,1011.93
2019-05-15T09:05:58.779Z,1011.81
2019-05-15T09:07:01.032Z,1011.72
2019-05-15T09:07:58.076Z,1011.73
2019-05-15T09:08:58.495Z,1011.81
2019-05-15T09:09:58.040Z,1011.75
2019-05-15T09:10:58.593Z,1011.71
2019-05-15T09:11:58.368Z,1011.73
2019-05-15T09:12:58.504Z,1011.72
2019-05-15T09:13:59.298Z,1011.67
2019-05-15T09:14:58.098Z,1011.75
2019-05-15T09:15:58.701Z,1011.68
2019-05-15T09:16:58.291Z,1011.62
2019-05-15T09:18:11.295Z,1011.69
2019-05-15T09:18:59.147Z,1011.71
2019-05-15T09:19:58.662Z,1011.87
2019-05-15T09:20:56.100Z,1011.74
2019-05-15T09:21:58.289Z,1011.77
2019-05-15T09:22:58.262Z,1011.74
2019-05-15T09:23:58.711Z,1011.75
2019-05-15T09:24:56.054Z,1011.77
2019-05-15T09:25:57.851Z,1011.70
2019-05-15T09:26:56.035Z,1011.77
2019-05-15T09:27:57.928Z,1011.73
2019-05-15T09:28:58.328Z,1011.72
2019-05-15T09:29:56.004Z,1011.69
2019-05-15T09:30:55.995Z,1011.72
2019-05-15T09:31:55.987Z,1011.74
2019-05-15T09:32:56.002Z,1011.69
2019-05-15T09:33:58.391Z,1011.67
2019-05-15T09:34:55.953Z,1011.62
2019-05-15T09:35:58.158Z,1011.58
2019-05-15T09:36:55.933Z,1011.76
2019-05-15T09:37:58.178Z,1011.64
2019-05-15T09:38:58.348Z,1011.71
2019-05-15T09:39:58.244Z,1011.59
2019-05-15T09:40:58.291Z,1011.66
2019-05-15T09:41:57.784Z,1011.60
2019-05-15T09:42:57.792Z,1011.59
2019-05-15T09:43:57.918Z,1011.59
2019-05-15T09:44:58.042Z,1011.63
2019-05-15T09:45:58.098Z,1011.59
2019-05-15T09:46:58.272Z,1011.55
2019-05-15T09:47:55.857Z,1011.57
2019-05-15T09:48:55.808Z,1011.60
2019-05-15T09:49:55.800Z,1011.56
2019-05-15T09:50:55.792Z,1011.59
2019-05-15T09:51:58.418Z,1011.48
2019-05-15T09:52:55.802Z,1011.42
2019-05-15T09:53:55.760Z,1011.44
2019-05-15T09:54:55.754Z,1011.44
2019-05-15T09:55:55.739Z,1011.44
2019-05-15T09:56:58.388Z,1011.40
2019-05-15T09:57:55.723Z,1011.47
2019-05-15T09:58:58.011Z,1011.42
2019-05-15T09:59:58.545Z,1011.41
2019-05-15T10:00:55.690Z,1011.38
2019-05-15T10:01:55.679Z,1011.38
2019-05-15T10:02:55.671Z,1011.41
2019-05-15T10:03:55.690Z,1011.31
2019-05-15T10:05:06.052Z,1011.36
2019-05-15T10:05:56.646Z,1011.43
2019-05-15T10:06:55.630Z,1011.36
2019-05-15T10:07:55.629Z,1011.44
2019-05-15T10:08:55.636Z,1011.36
2019-05-15T10:09:55.596Z,1011.29
2019-05-15T10:10:55.588Z,1011.38
2019-05-15T10:11:55.581Z,1011.36
2019-05-15T10:12:55.579Z,1011.34
2019-05-15T10:13:55.594Z,1011.29
2019-05-15T10:14:55.548Z,1011.30
2019-05-15T10:15:55.537Z,1011.17
2019-05-15T10:16:58.217Z,1011.21
2019-05-15T10:17:55.519Z,1011.14
2019-05-15T10:18:58.020Z,1011.19
2019-05-15T10:19:58.131Z,1011.15
2019-05-15T10:20:57.599Z,1011.17
2019-05-15T10:21:55.492Z,1011.21
2019-05-15T10:22:55.474Z,1011.18
2019-05-15T10:23:58.792Z,1011.19
2019-05-15T10:24:55.453Z,1011.19
2019-05-15T10:25:55.437Z,1011.07
2019-05-15T10:26:57.927Z,1011.08
2019-05-15T10:27:57.843Z,1011.15
2019-05-15T10:28:58.262Z,1011.11
2019-05-15T10:29:55.394Z,1011.04
2019-05-15T10:30:55.393Z,1011.02
2019-05-15T10:31:55.375Z,1010.95
2019-05-15T10:32:55.373Z,1011.04
2019-05-15T10:33:55.383Z,1010.87
2019-05-15T10:34:55.353Z,1010.98
2019-05-15T10:35:55.341Z,1010.96
2019-05-15T10:36:55.334Z,1011.00
2019-05-15T10:37:55.323Z,1010.95
2019-05-15T10:38:55.389Z,1010.96
2019-05-15T10:39:55.299Z,1010.88
2019-05-15T10:41:08.133Z,1010.93
2019-05-15T10:41:56.282Z,1011.02
2019-05-15T10:42:55.276Z,1010.93
2019-05-15T10:43:56.684Z,1010.89
2019-05-15T10:44:55.253Z,1010.85
2019-05-15T10:45:55.251Z,1010.80
2019-05-15T10:46:55.234Z,1010.68
2019-05-15T10:47:55.230Z,1010.79
2019-05-15T10:48:55.239Z,1010.82
2019-05-15T10:49:55.204Z,1010.81
2019-05-15T10:50:58.542Z,1010.80
2019-05-15T10:51:56.183Z,1010.74
2019-05-15T10:52:55.175Z,1010.62
2019-05-15T10:53:55.195Z,1010.76
2019-05-15T10:54:55.159Z,1010.80
2019-05-15T10:55:55.159Z,1010.77
2019-05-15T10:56:55.149Z,1010.76
2019-05-15T10:57:55.159Z,1010.73
2019-05-15T10:58:55.146Z,1010.66
2019-05-15T10:59:55.121Z,1010.69
2019-05-15T11:00:55.108Z,1010.74
2019-05-15T11:01:55.086Z,1010.70
2019-05-15T11:02:55.083Z,1010.71
2019-05-15T11:03:55.095Z,1010.53
2019-05-15T11:04:55.060Z,1010.60
2019-05-15T11:05:55.101Z,1010.62
2019-05-15T11:06:55.041Z,1010.64
2019-05-15T11:07:55.031Z,1010.64
2019-05-15T11:08:55.044Z,1010.61
2019-05-15T11:09:55.025Z,1010.54
2019-05-15T11:10:54.999Z,1010.66
2019-05-15T11:11:54.994Z,1010.51
2019-05-15T11:12:54.983Z,1010.49
2019-05-15T11:13:55.002Z,1010.46
2019-05-15T11:14:54.965Z,1010.53
2019-05-15T11:15:54.955Z,1010.51
2019-05-15T11:16:54.945Z,1010.52
2019-05-15T11:17:54.938Z,1010.60
2019-05-15T11:18:54.953Z,1010.51
2019-05-15T11:19:54.919Z,1010.59
2019-05-15T11:20:54.904Z,1010.56
2019-05-15T11:21:54.891Z,1010.52
2019-05-15T11:22:54.884Z,1010.52
2019-05-15T11:23:54.904Z,1010.48
2019-05-15T11:24:54.863Z,1010.49
2019-05-15T11:25:54.863Z,1010.51
2019-05-15T11:26:56.262Z,1010.47
2019-05-15T11:27:54.838Z,1010.56
2019-05-15T11:28:54.850Z,1010.47
2019-05-15T11:29:54.819Z,1010.48
2019-05-15T11:30:54.802Z,1010.58
2019-05-15T11:31:54.795Z,1010.47
2019-05-15T11:32:54.783Z,1010.41
2019-05-15T11:33:54.803Z,1010.41
2019-05-15T11:34:54.762Z,1010.43
2019-05-15T11:36:02.062Z,1010.38
2019-05-15T11:36:55.743Z,1010.37
2019-05-15T11:37:56.892Z,1010.40
2019-05-15T11:38:54.751Z,1010.44
2019-05-15T11:39:54.713Z,1010.37
2019-05-15T11:40:54.703Z,1010.41
2019-05-15T11:41:54.691Z,1010.31
2019-05-15T11:42:54.683Z,1010.38
2019-05-15T11:43:54.776Z,1010.43
2019-05-15T11:44:54.664Z,1010.42
2019-05-15T11:45:54.655Z,1010.36
2019-05-15T11:46:54.645Z,1010.02
2019-05-15T11:47:54.633Z,1010.25
2019-05-15T11:48:54.662Z,1010.30
2019-05-15T11:49:54.616Z,1010.27
2019-05-15T11:50:54.613Z,1010.26
2019-05-15T11:51:54.595Z,1010.38
2019-05-15T11:52:54.592Z,1010.38
2019-05-15T11:53:54.606Z,1010.10
2019-05-15T11:54:54.598Z,1009.88
2019-05-15T11:55:54.558Z,1009.98
2019-05-15T11:56:54.546Z,1010.21
2019-05-15T11:57:55.759Z,1010.31
2019-05-15T11:58:54.526Z,1010.27
2019-05-15T11:59:55.485Z,1010.17
2019-05-15T12:00:54.510Z,1010.10
2019-05-15T12:01:54.499Z,1010.13
2019-05-15T12:02:54.496Z,1010.20
2019-05-15T12:03:54.482Z,1010.16
2019-05-15T12:04:54.507Z,1010.01